Liebenthal, KS (67553)

11:02 PM CDT on July 22, 2014 (GMT -0500)
Rural Ellis Co. (KKSHAYS15) Elev 2077 ft | 38.81 °N, 99.37 °W | Change Station

Current weather conditions updated 11 minutes ago

Clear
Clear
81.3 °F
Feels Like 85 °F
N
1.7
Wind Variable Wind from SSE

Tomorrow is forecast to be Much Cooler than today.

Today
High -- | Low -- °F
--% Chance of Precip.
Yesterday
High -- | Low -- °F
Precip. -- in
6:30 AM 8:56 PM
Waning Crescent, 13% visible
Pressure 30.12 in
Visibility 10.0 miles
Clouds Clear
Heat Index 85 °F
Dew Point 70 °F
Humidity 68%
Rainfall 0.00 in
Snow Depth Not available.
UV 0 out of 12
Pollen 5.50 out of 12
Air Quality Not available.
Flu Activity Not available.
METAR KHYS 230355Z AUTO 17006KT 10SM CLR 27/17 A3012 RMK AO1

More Conditions Fewer Conditions

Pressure 30.12 in
Visibility 10.0 miles
Clouds Clear
Heat Index 85 °F
Dew Point 70 °F
Humidity 68%
Rainfall 0.00 in
Snow Depth Not available.
UV 0 out of 12
Pollen 5.50 out of 12
Air Quality Not available.
Flu Activity Not available.
METAR KHYS 230355Z AUTO 17006KT 10SM CLR 27/17 A3012 RMK AO1

More Conditions Fewer Conditions

10-Day Weather Forecast

Almanac

Astronomy

Jul. 22, 2014 Rise Set
Actual Time 6:30 AM CDT 8:56 PM CDT
Civil Twilight 5:59 AM CDT 9:26 PM CDT
Nautical Twilight 5:22 AM CDT 10:04 PM CDT
Astronomical Twilight 4:40 AM CDT 10:46 PM CDT
Moon 3:04 AM CDT (7/22) 5:36 PM CDT (7/22)
Length of Visible Light 15h 27m
Length of Day
14h 26m
Tomorrow will be 1m 34s shorter.
Waning Crescent, 13% of the Moon is Illuminated
Jul 23
Waning Crescent
Jul 26
New
Aug 3
First Quarter
Aug 10
Full
Aug 17
Last Quarter

Today's Extremes

State Highs State Lows

Community

WunderPhotos

Upload Photos

1,736,490 photos uploaded!

Nearby

Snow Depth

Station Depth Elevation
No new snow has been reported.

Earthquake Activity

City Distance Mag. Time & Date
Cherokee, Oklahoma 149 miles 2.5 10:35 AM CDT
2014-07-17
Caldwell, Kansas 135 miles 3.6 5:40 AM CDT
2014-07-17
Medford, Oklahoma 157 miles 2.5 4:18 AM CDT
2014-07-16
Minimum magnitude displayed is 2.5.

Coastal Water Temperatures

Place Temperature
No Stations Reporting

Nearby Weather Stations

Station Location Temp. Heat Index Dew Point Humidity Wind Precip. Elev Updated Type
Rural Ellis Co., Hays, KS 81.3 °F 85 °F 70 °F 68% SSE  at  1.7 mph - / hr 2077 ft 10:50 PM CDT Normal
Hays Kansas Weather, Hays, KS 74.1 °F 77 °F 52 °F 46% SW  at  0.0 mph 0.00 in / hr 2067 ft 11:00 PM CDT Normal
MesoWest WALKER , Walker, KS 87 °F 84 °F - - North  at  - 0.00 in / hr 1941 ft 9:20 PM CDT MADIS
Gorham Tele-Com, Gorham, KS 84.4 °F 89 °F 70 °F 63% NNE  at  3.1 mph 0.00 in / hr 1919 ft 11:01 PM CDT Rapid Fire

Show More Stations Show Fewer Stations